Time;durP1;ratioP1;P1;durP2;ratioP2;P2;SDS_P1;SDS_P2;PMS_P1;PMS_P2;Temp;Humidity;BMP_temperature;BMP_pressure;BME280_temperature;BME280_humidity;BME280_pressure;Samples;Min_cycle;Max_cycle;Signal;HPM_P1;HPM_P2
2023/04/12 09:16:39;;;;;;;6.82;2.20;;;;;;;8.67;92.84;95279.22;2111067;27;20563;-58
2023/04/12 09:17:48;;;;;;;2.70;1.38;;;;;;;8.70;90.77;95286.88;2101115;28;20206;-59
2023/04/12 09:18:50;;;;;;;9.93;1.98;;;;;;;8.80;91.24;95287.16;2104908;28;20194;-62
2023/04/12 09:19:53;;;;;;;2.95;1.50;;;;;;;8.81;89.98;95283.59;2091270;28;20231;-62
2023/04/12 09:32:27;;;;;;;13.82;2.45;;;;;;;8.87;89.65;95270.22;2101751;27;20549;-62
2023/04/12 09:33:36;;;;;;;9.07;1.80;;;;;;;9.00;90.67;95280.75;2095081;28;20199;-59
2023/04/12 09:34:54;;;;;;;15.35;3.42;;;;;;;8.99;91.05;95271.28;2087010;28;20239;-61
2023/04/12 09:55:31;;;;;;;6.03;1.65;;;;;;;8.90;92.42;95245.78;2102370;27;20928;-60
2023/04/12 09:56:35;;;;;;;7.00;2.20;;;;;;;9.03;92.66;95262.34;2104283;28;20219;-60
2023/04/12 09:57:41;;;;;;;5.18;1.83;;;;;;;9.02;92.53;95257.25;2102648;28;20235;-60
2023/04/12 09:58:45;;;;;;;5.65;1.98;;;;;;;9.10;92.50;95257.59;2095776;28;20197;-60
2023/04/12 09:59:50;;;;;;;10.13;1.95;;;;;;;9.15;93.13;95263.38;2086113;28;20301;-60
2023/04/12 10:00:52;;;;;;;8.38;1.77;;;;;;;9.10;92.00;95241.97;2079345;28;20204;-61
2023/04/12 10:01:54;;;;;;;5.53;1.90;;;;;;;9.30;93.73;95251.16;2080020;28;20194;-60
2023/04/12 10:03:03;;;;;;;8.60;2.20;;;;;;;9.32;92.38;95254.53;2080925;28;20198;-60
2023/04/12 10:04:06;;;;;;;4.90;1.90;;;;;;;9.39;92.47;95244.56;2078591;28;20554;-62
2023/04/12 10:05:12;;;;;;;3.20;1.50;;;;;;;9.34;91.58;95244.84;2077284;28;20195;-62
2023/04/12 10:06:14;;;;;;;7.55;1.75;;;;;;;9.43;91.47;95238.22;2079448;28;20191;-62
2023/04/12 10:07:16;;;;;;;4.43;2.20;;;;;;;9.61;92.33;95238.81;2079542;28;20202;-62
2023/04/12 10:08:17;;;;;;;5.32;1.85;;;;;;;9.68;92.46;95236.69;2079032;28;20242;-63
2023/04/12 10:09:19;;;;;;;7.93;2.00;;;;;;;9.68;92.96;95237.50;2081707;28;20208;-63
2023/04/12 10:10:21;;;;;;;5.40;2.10;;;;;;;9.62;90.65;95238.75;2081796;28;20210;-62
2023/04/12 10:11:24;;;;;;;3.70;2.13;;;;;;;9.62;91.87;95232.69;2078316;28;20225;-63
2023/04/12 10:12:28;;;;;;;3.80;1.80;;;;;;;9.69;92.21;95238.34;2078912;28;20207;-62
2023/04/12 10:13:31;;;;;;;5.78;1.40;;;;;;;9.67;91.27;95241.03;2079278;28;20211;-62
2023/04/12 10:14:33;;;;;;;3.30;1.75;;;;;;;9.56;90.56;95243.50;2081299;28;21074;-62
2023/04/12 10:15:35;;;;;;;3.75;1.30;;;;;;;9.57;91.57;95242.56;2077993;28;20206;-62
2023/04/12 10:16:40;;;;;;;14.25;2.40;;;;;;;9.64;91.60;95230.81;2077523;28;20561;-63
2023/04/12 10:17:52;;;;;;;4.00;1.80;;;;;;;9.67;92.31;95233.22;2080488;28;20221;-62
2023/04/12 10:18:54;;;;;;;4.13;1.60;;;;;;;9.62;91.17;95236.16;2079793;28;20200;-62
2023/04/12 10:19:57;;;;;;;6.65;1.75;;;;;;;9.62;90.34;95240.50;2077705;28;20306;-62
2023/04/12 10:20:59;;;;;;;6.80;1.60;;;;;;;9.72;91.38;95238.16;2080038;28;20206;-61
2023/04/12 10:22:00;;;;;;;5.53;2.00;;;;;;;9.92;92.31;95234.28;2079550;28;20209;-62
2023/04/12 10:23:05;;;;;;;3.28;1.60;;;;;;;9.88;90.28;95241.47;2080975;28;20204;-62
2023/04/12 10:24:08;;;;;;;4.50;1.92;;;;;;;9.96;91.17;95233.97;2077440;28;20259;-63
2023/04/12 10:25:18;;;;;;;6.57;1.80;;;;;;;9.86;90.38;95235.50;2077510;28;20272;-63
2023/04/12 10:26:20;;;;;;;6.35;1.90;;;;;;;9.77;90.46;95236.09;2078770;28;20251;-62
2023/04/12 10:27:26;;;;;;;3.65;1.80;;;;;;;9.75;90.43;95230.97;2082840;28;20813;-63
2023/04/12 10:28:27;;;;;;;4.88;2.05;;;;;;;9.74;89.90;95213.66;2078033;28;20531;-62
2023/04/12 10:29:29;;;;;;;4.60;1.88;;;;;;;9.99;91.03;95238.13;2075762;28;20593;-62
2023/04/12 10:30:31;;;;;;;4.05;1.45;;;;;;;9.97;90.26;95238.25;2069734;28;20208;-62
2023/04/12 10:31:32;;;;;;;4.13;1.35;;;;;;;10.01;89.17;95235.47;2071243;28;20598;-62
2023/04/12 10:32:35;;;;;;;10.77;1.70;;;;;;;10.05;89.17;95223.88;2070595;28;20227;-62
2023/04/12 10:33:37;;;;;;;7.35;1.40;;;;;;;10.20;90.21;95222.88;2071040;28;20208;-63
2023/04/12 10:34:41;;;;;;;7.28;1.85;;;;;;;10.28;89.76;95227.59;2070266;28;20234;-62
2023/04/12 10:36:05;;;;;;;6.53;1.60;;;;;;;10.26;89.78;95229.47;2070784;28;20212;-63
2023/04/12 10:37:07;;;;;;;2.95;1.00;;;;;;;10.16;87.88;95229.22;2071067;28;20200;-63
2023/04/12 10:38:08;;;;;;;4.68;1.48;;;;;;;10.05;87.85;95229.09;2072832;28;20201;-63
2023/04/12 10:39:10;;;;;;;2.55;1.30;;;;;;;10.14;88.58;95220.66;2070199;28;20200;-62
2023/04/12 10:40:18;;;;;;;2.80;1.40;;;;;;;10.07;89.15;95216.81;2072506;28;20871;-62
2023/04/12 10:41:20;;;;;;;5.60;1.05;;;;;;;9.97;87.63;95233.03;2070818;28;20204;-63
2023/04/12 10:42:26;;;;;;;4.75;1.10;;;;;;;9.99;88.31;95222.50;2072522;28;20199;-62
2023/04/12 10:43:28;;;;;;;4.28;1.50;;;;;;;10.08;88.64;95214.09;2071111;28;20207;-62
2023/04/12 10:44:30;;;;;;;3.55;1.55;;;;;;;10.21;88.95;95226.31;2068747;28;20266;-63
2023/04/12 10:45:32;;;;;;;5.00;2.83;;;;;;;10.37;88.95;95215.72;2071415;28;20639;-62
2023/04/12 10:46:37;;;;;;;9.02;3.53;;;;;;;10.35;87.82;95221.03;2071177;28;20210;-61
2023/04/12 10:47:48;;;;;;;3.85;1.85;;;;;;;10.49;88.05;95209.69;2072372;28;20202;-62
2023/04/12 10:48:51;;;;;;;8.73;2.92;;;;;;;10.56;87.09;95210.13;2070020;28;20802;-62
2023/04/12 10:50:23;;;;;;;2.30;1.52;;;;;;;10.71;87.96;95218.69;2072505;28;20224;-62
2023/04/12 10:51:26;;;;;;;2.95;1.85;;;;;;;10.61;86.39;95219.31;2072312;28;20287;-62
2023/04/12 10:52:27;;;;;;;4.10;1.70;;;;;;;10.49;87.32;95220.16;2072459;28;20227;-63
2023/04/12 10:53:29;;;;;;;3.22;1.45;;;;;;;10.44;87.14;95222.22;2071233;28;20673;-62
2023/04/12 10:54:35;;;;;;;4.82;1.40;;;;;;;10.55;87.09;95211.06;2068803;28;20224;-62
2023/04/12 10:55:44;;;;;;;4.70;1.60;;;;;;;10.65;86.92;95206.06;2071290;28;20670;-62
2023/04/12 10:56:46;;;;;;;2.47;1.42;;;;;;;10.74;87.19;95208.03;2068439;28;20223;-62
2023/04/12 10:57:48;;;;;;;3.17;1.45;;;;;;;10.62;85.57;95212.31;2070003;28;20203;-63
2023/04/12 10:58:49;;;;;;;3.15;1.25;;;;;;;10.62;86.02;95212.31;2070121;28;20204;-63
2023/04/12 10:59:56;;;;;;;2.85;1.17;;;;;;;10.73;86.64;95195.94;2067074;28;20590;-63
2023/04/12 11:00:58;;;;;;;2.33;1.20;;;;;;;10.71;85.60;95200.41;2070537;28;20211;-62
2023/04/12 11:02:09;;;;;;;6.75;2.30;;;;;;;10.78;85.97;95196.47;2064245;28;20214;-62
2023/04/12 11:03:11;;;;;;;2.30;1.33;;;;;;;10.78;85.51;95197.28;2073403;28;20252;-63
2023/04/12 11:04:19;;;;;;;1.88;1.25;;;;;;;10.72;86.44;95189.88;2068058;28;20280;-62
2023/04/12 11:05:21;;;;;;;6.13;1.92;;;;;;;10.78;86.89;95199.91;2072237;28;20196;-62
2023/04/12 11:06:41;;;;;;;7.25;2.13;;;;;;;10.82;86.64;95184.84;2068060;28;20206;-62
2023/04/12 11:07:45;;;;;;;5.53;1.83;;;;;;;10.90;86.57;95192.97;2065635;28;20200;-62
2023/04/12 11:08:47;;;;;;;2.22;1.48;;;;;;;10.70;84.91;95190.91;2064460;28;20643;-62
2023/04/12 11:09:49;;;;;;;4.78;1.40;;;;;;;10.60;84.96;95194.16;2063574;28;20220;-62
2023/04/12 11:10:51;;;;;;;3.67;1.23;;;;;;;10.55;85.10;95191.03;2066082;28;20213;-62
2023/04/12 11:12:04;;;;;;;4.03;1.80;;;;;;;10.60;86.47;95198.53;2065016;28;20621;-62
2023/04/12 11:13:10;;;;;;;6.43;1.75;;;;;;;10.44;85.93;95196.94;2064372;28;20199;-62
2023/04/12 11:14:14;;;;;;;3.42;1.58;;;;;;;10.47;86.15;95187.25;2063317;28;20210;-62
2023/04/12 11:15:15;;;;;;;5.53;2.90;;;;;;;10.56;86.60;95182.25;2064604;28;20225;-62
2023/04/12 11:16:17;;;;;;;3.40;1.80;;;;;;;10.68;86.24;95177.13;2068041;28;20204;-62
2023/04/12 11:17:20;;;;;;;3.38;1.40;;;;;;;10.62;85.43;95183.59;2069162;28;20218;-62
2023/04/12 11:18:22;;;;;;;6.22;1.77;;;;;;;10.54;85.32;95183.28;2066963;28;20205;-62
2023/04/12 11:19:24;;;;;;;2.85;1.35;;;;;;;10.59;85.12;95215.16;2064357;28;20201;-62
2023/04/12 11:20:28;;;;;;;4.63;1.83;;;;;;;10.67;86.11;95191.94;2064311;28;20196;-62
2023/04/12 11:21:30;;;;;;;1.77;1.10;;;;;;;10.62;84.22;95181.81;2065920;28;20566;-62
2023/04/12 11:22:32;;;;;;;3.05;1.45;;;;;;;10.72;84.78;95195.09;2066096;28;20209;-62
2023/04/12 11:23:35;;;;;;;4.70;1.60;;;;;;;10.87;83.90;95187.97;2065172;28;20624;-61
2023/04/12 11:24:43;;;;;;;2.47;1.45;;;;;;;11.26;83.10;95173.06;2064539;28;20232;-62
2023/04/12 11:25:51;;;;;;;4.80;1.35;;;;;;;11.44;82.46;95176.16;2065296;28;20210;-62
2023/04/12 11:26:52;;;;;;;5.97;1.33;;;;;;;11.62;82.32;95181.00;2063926;28;20210;-62
2023/04/12 11:27:55;;;;;;;2.13;1.02;;;;;;;11.66;81.20;95171.16;2066659;28;20206;-62
2023/04/12 11:28:57;;;;;;;3.90;1.23;;;;;;;11.67;80.18;95175.44;2065392;28;20288;-62
2023/04/12 11:30:00;;;;;;;1.88;1.00;;;;;;;11.71;80.55;95162.03;2063191;28;20305;-62
2023/04/12 11:31:02;;;;;;;3.90;1.10;;;;;;;12.34;79.58;95158.34;2065428;28;20213;-62
2023/04/12 11:32:06;;;;;;;5.25;1.15;;;;;;;12.35;78.03;95179.16;2066039;28;20596;-62
2023/04/12 11:33:07;;;;;;;2.35;1.20;;;;;;;12.78;78.53;95163.78;2066154;28;20198;-62
2023/04/12 11:34:09;;;;;;;3.13;1.15;;;;;;;13.28;76.39;95172.13;2063447;28;20203;-61
2023/04/12 11:35:11;;;;;;;2.97;1.40;;;;;;;12.95;77.73;95176.41;2065654;28;20619;-62
2023/04/12 11:36:12;;;;;;;2.25;0.90;;;;;;;12.61;78.13;95165.91;2065082;28;20220;-62
2023/04/12 11:37:16;;;;;;;2.58;1.15;;;;;;;12.29;77.91;95170.94;2065773;28;20547;-62
2023/04/12 11:38:18;;;;;;;3.67;0.98;;;;;;;11.89;78.34;95172.94;2067089;28;20198;-62
2023/04/12 11:39:20;;;;;;;4.43;1.40;;;;;;;11.87;79.71;95167.00;2064994;28;20972;-61
2023/04/12 11:40:22;;;;;;;2.50;0.98;;;;;;;12.00;79.11;95164.34;2064196;28;20459;-61
2023/04/12 11:41:23;;;;;;;2.13;1.10;;;;;;;11.73;78.62;95183.69;2064332;28;20349;-62
2023/04/12 11:42:27;;;;;;;4.20;1.02;;;;;;;11.84;79.11;95167.19;2066069;28;20205;-61
2023/04/12 11:43:30;;;;;;;3.20;1.30;;;;;;;11.84;80.14;95163.75;2063465;28;20285;-62
2023/04/12 11:44:32;;;;;;;3.15;1.10;;;;;;;11.72;80.29;95163.72;2062442;28;20245;-61
2023/04/12 11:45:57;;;;;;;2.95;1.00;;;;;;;11.58;79.63;95172.56;2064711;28;20205;-62
2023/04/12 11:47:00;;;;;;;3.00;1.42;;;;;;;11.49;80.98;95168.00;2066724;28;20253;-61
2023/04/12 11:48:01;;;;;;;4.00;1.50;;;;;;;11.40;80.96;95160.78;2065947;28;20328;-61
2023/04/12 11:49:03;;;;;;;5.60;2.15;;;;;;;11.18;80.44;95157.09;2064801;28;20257;-62
2023/04/12 11:50:05;;;;;;;6.15;3.33;;;;;;;11.23;80.76;95162.00;2063177;28;20226;-62
2023/04/12 11:51:20;;;;;;;2.88;1.60;;;;;;;11.21;81.68;95158.66;2065588;28;21040;-62
2023/04/12 11:52:30;;;;;;;3.10;1.17;;;;;;;11.18;81.78;95157.09;2064850;28;20198;-63
2023/04/12 11:53:32;;;;;;;5.05;1.20;;;;;;;11.16;81.05;95155.53;2071210;28;20206;-62
2023/04/12 11:54:34;;;;;;;2.38;1.13;;;;;;;11.14;81.46;95150.41;2072234;28;20225;-62
2023/04/12 11:55:35;;;;;;;3.70;1.00;;;;;;;11.18;81.07;95153.66;2066894;28;20198;-62
2023/04/12 11:56:38;;;;;;;2.05;0.95;;;;;;;11.17;81.50;95150.19;2064739;28;20233;-62
2023/04/12 11:57:39;;;;;;;2.85;1.00;;;;;;;11.32;80.44;95148.28;2066137;28;20201;-63
2023/04/12 11:58:41;;;;;;;2.33;1.00;;;;;;;11.46;80.58;95149.06;2064547;28;20209;-62
2023/04/12 11:59:44;;;;;;;2.88;1.30;;;;;;;11.44;79.63;95146.59;2063974;28;20229;-62
2023/04/12 12:00:46;;;;;;;6.40;1.10;;;;;;;11.57;79.26;95157.81;2063816;28;20195;-62
2023/04/12 12:01:50;;;;;;;1.92;0.95;;;;;;;11.56;78.48;95155.31;2065072;28;20217;-62
2023/04/12 12:02:52;;;;;;;1.67;0.90;;;;;;;11.59;78.77;95160.31;2063939;28;20226;-62
2023/04/12 12:04:07;;;;;;;1.70;0.90;;;;;;;11.71;78.80;95159.41;2066342;28;20660;-62
2023/04/12 12:05:10;;;;;;;2.75;0.90;;;;;;;11.73;79.14;95151.47;2068072;28;20743;-62
2023/04/12 12:06:13;;;;;;;2.00;1.00;;;;;;;12.11;78.61;95145.22;2064234;28;20204;-63
2023/04/12 12:07:16;;;;;;;3.03;1.30;;;;;;;11.99;77.05;95154.00;2056290;28;20607;-63
2023/04/12 12:08:18;;;;;;;1.55;0.80;;;;;;;11.79;75.79;95156.25;2060420;28;20294;-63
2023/04/12 12:09:21;;;;;;;2.75;1.10;;;;;;;11.92;76.99;95148.31;2062071;28;20253;-60
2023/04/12 12:10:22;;;;;;;3.08;1.08;;;;;;;11.99;76.41;95144.34;2063587;28;20616;-60
2023/04/12 12:11:44;;;;;;;3.78;1.02;;;;;;;12.11;76.09;95139.97;2063856;28;20205;-60
2023/04/12 12:12:46;;;;;;;3.55;0.90;;;;;;;11.93;76.68;95150.00;2064732;28;20232;-60
2023/04/12 12:13:50;;;;;;;3.83;1.00;;;;;;;11.88;76.25;95132.03;2063241;28;20244;-60
2023/04/12 12:14:52;;;;;;;1.45;0.90;;;;;;;11.86;76.86;95140.94;2064891;28;20229;-60
2023/04/12 12:15:53;;;;;;;2.25;1.05;;;;;;;11.71;77.57;95133.28;2064991;28;20618;-60
2023/04/12 12:16:57;;;;;;;2.63;0.90;;;;;;;11.66;77.61;95131.94;2065428;28;20218;-60
2023/04/12 12:18:00;;;;;;;2.45;1.08;;;;;;;11.71;78.18;95133.28;2064057;28;20217;-60
2023/04/12 12:19:03;;;;;;;2.70;1.30;;;;;;;11.70;78.38;95126.38;2064203;28;20198;-59
2023/04/12 12:20:06;;;;;;;3.58;1.10;;;;;;;11.74;78.07;95120.00;2062036;28;20234;-60
2023/04/12 12:21:08;;;;;;;1.58;0.80;;;;;;;11.66;77.20;95124.94;2065629;28;20199;-60
2023/04/12 12:22:17;;;;;;;2.08;1.00;;;;;;;11.79;77.10;95135.31;2064776;28;20198;-59
2023/04/12 12:23:32;;;;;;;1.52;0.80;;;;;;;12.07;76.91;95131.53;2064841;28;20842;-60
2023/04/12 12:24:34;;;;;;;3.00;1.10;;;;;;;12.68;75.09;95116.50;2061769;28;20221;-60
2023/04/12 12:25:45;;;;;;;1.75;0.90;;;;;;;12.48;73.86;95126.75;2064706;28;20198;-60
2023/04/12 12:26:49;;;;;;;1.50;0.70;;;;;;;12.56;74.45;95139.25;2065195;28;20198;-60
2023/04/12 12:27:56;;;;;;;3.08;1.02;;;;;;;12.40;74.23;95129.94;2063132;28;20222;-60
2023/04/12 12:28:59;;;;;;;2.58;0.70;;;;;;;12.29;74.93;95110.75;2064267;28;20205;-60
2023/04/12 12:30:03;;;;;;;1.80;0.90;;;;;;;12.29;74.99;95122.06;2063057;28;20705;-60
2023/04/12 12:31:06;;;;;;;3.85;1.08;;;;;;;12.44;74.87;95121.84;2064429;28;20249;-60
2023/04/12 12:32:12;;;;;;;2.78;0.80;;;;;;;12.90;73.44;95127.00;2065461;28;20286;-61
2023/04/12 12:33:18;;;;;;;1.65;0.80;;;;;;;13.16;72.13;95125.91;2063138;28;20289;-60
2023/04/12 12:34:23;;;;;;;4.15;1.30;;;;;;;13.49;72.10;95117.16;2063591;28;20205;-59
2023/04/12 12:35:26;;;;;;;5.38;1.08;;;;;;;13.31;72.12;95126.47;2065241;28;20209;-60
2023/04/12 12:36:32;;;;;;;1.30;0.80;;;;;;;13.25;71.57;95125.16;2065919;28;20254;-60
2023/04/12 12:37:34;;;;;;;2.13;0.90;;;;;;;13.37;71.95;95124.22;2065537;28;20202;-60
2023/04/12 12:38:36;;;;;;;2.35;0.80;;;;;;;13.54;71.48;95125.47;2064401;28;20202;-60
2023/04/12 12:39:38;;;;;;;2.55;1.00;;;;;;;13.22;71.50;95128.84;2062803;28;20237;-60
2023/04/12 12:40:40;;;;;;;2.03;0.82;;;;;;;12.93;72.99;95127.72;2066966;28;20210;-60
2023/04/12 12:41:41;;;;;;;1.20;0.80;;;;;;;12.87;73.97;95135.09;2066288;28;20203;-61
2023/04/12 12:42:51;;;;;;;2.63;0.90;;;;;;;13.03;73.38;95124.25;2064666;28;20202;-61
2023/04/12 12:43:52;;;;;;;5.10;1.30;;;;;;;13.06;73.94;95125.78;2064643;28;20199;-61
2023/04/12 12:44:54;;;;;;;3.83;1.20;;;;;;;13.13;74.21;95113.03;2066493;28;20234;-61
2023/04/12 12:45:56;;;;;;;1.55;0.80;;;;;;;13.04;73.20;95112.00;2066132;28;20237;-61
2023/04/12 12:47:00;;;;;;;5.50;0.90;;;;;;;12.96;73.30;95111.75;2063074;28;20238;-61
2023/04/12 12:48:14;;;;;;;1.88;0.90;;;;;;;12.60;72.75;95100.56;2064804;28;20201;-61
2023/04/12 12:49:17;;;;;;;4.80;1.20;;;;;;;12.43;73.22;95097.47;2063639;28;20202;-61
2023/04/12 12:50:22;;;;;;;3.78;1.38;;;;;;;12.42;73.77;95101.03;2064256;28;20210;-61
2023/04/12 12:51:25;;;;;;;7.90;0.95;;;;;;;12.30;74.18;95102.78;2065296;28;20207;-60
2023/04/12 12:52:27;;;;;;;2.70;0.90;;;;;;;12.34;74.99;95101.63;2063933;28;20206;-61
2023/04/12 12:53:28;;;;;;;2.47;0.95;;;;;;;12.22;75.01;95092.91;2064404;28;20202;-60
2023/04/12 12:54:30;;;;;;;2.88;0.70;;;;;;;12.05;75.16;95104.66;2061074;28;20234;-61
2023/04/12 12:55:41;;;;;;;3.65;1.00;;;;;;;11.86;76.05;95110.41;2063674;28;20270;-61
2023/04/12 12:56:43;;;;;;;4.63;1.23;;;;;;;11.90;76.19;95111.81;2062896;28;20221;-60
2023/04/12 12:57:46;;;;;;;1.70;0.90;;;;;;;11.93;76.68;95110.75;2063455;28;20286;-61
2023/04/12 12:59:06;;;;;;;5.80;0.80;;;;;;;11.98;76.42;95107.84;2064087;28;20231;-61
2023/04/12 13:00:09;;;;;;;1.90;0.90;;;;;;;11.93;76.11;95102.91;2065288;28;20202;-60
2023/04/12 13:01:11;;;;;;;2.72;1.10;;;;;;;11.97;76.29;95122.69;2064231;28;20724;-60
2023/04/12 13:02:14;;;;;;;2.13;1.00;;;;;;;11.98;76.67;95111.28;2063624;28;20199;-60
2023/04/12 13:03:16;;;;;;;4.60;1.10;;;;;;;12.02;75.54;95117.94;2063544;28;20209;-61
2023/04/12 13:04:17;;;;;;;2.25;1.30;;;;;;;12.03;75.62;95117.00;2062732;28;20212;-61
2023/04/12 13:05:21;;;;;;;3.63;1.00;;;;;;;12.04;75.82;95108.22;2062607;28;20243;-61
2023/04/12 13:06:25;;;;;;;2.97;1.10;;;;;;;12.35;75.62;95110.28;2065110;28;20285;-61
2023/04/12 13:07:27;;;;;;;3.28;1.20;;;;;;;12.40;74.19;95105.53;2063605;28;20245;-60
2023/04/12 13:08:33;;;;;;;4.03;1.02;;;;;;;12.34;74.00;95109.47;2065352;28;20230;-60
2023/04/12 13:09:34;;;;;;;2.65;0.90;;;;;;;12.29;74.34;95098.53;2062862;28;20223;-60
2023/04/12 13:10:36;;;;;;;2.08;1.00;;;;;;;12.22;73.71;95113.00;2065296;28;20861;-60
2023/04/12 13:11:37;;;;;;;12.43;3.83;;;;;;;12.10;74.24;95109.56;2073482;28;21125;-59
2023/04/12 13:12:39;;;;;;;2.00;1.00;;;;;;;11.97;75.14;95111.41;2071282;28;20213;-60
2023/04/12 13:13:40;;;;;;;5.45;2.70;;;;;;;11.96;75.70;95101.88;2064105;28;20198;-60
2023/04/12 13:14:42;;;;;;;3.78;1.10;;;;;;;11.74;75.91;95096.47;2062370;28;20246;-60
2023/04/12 13:15:45;;;;;;;1.05;0.65;;;;;;;11.80;76.84;95108.22;2064843;28;20199;-60
2023/04/12 13:16:47;;;;;;;4.40;1.17;;;;;;;11.81;76.74;95104.66;2063634;28;20210;-60
2023/04/12 13:17:53;;;;;;;3.15;1.00;;;;;;;11.77;76.80;95087.53;2064334;28;20234;-60
2023/04/12 13:18:55;;;;;;;5.22;1.20;;;;;;;11.80;76.64;95091.72;2066033;28;21087;-60
2023/04/12 13:19:58;;;;;;;4.10;1.10;;;;;;;11.86;77.29;95094.69;2063315;28;20226;-60
2023/04/12 13:20:59;;;;;;;3.53;0.98;;;;;;;11.81;76.68;95094.22;2063764;28;20206;-61
2023/04/12 13:22:00;;;;;;;1.55;0.80;;;;;;;11.86;76.38;95081.63;2065797;28;20897;-60
2023/04/12 13:23:02;;;;;;;3.35;1.40;;;;;;;11.85;76.50;95079.94;2064079;28;20222;-60
2023/04/12 13:24:03;;;;;;;2.30;0.85;;;;;;;11.89;76.27;95088.41;2063597;28;20202;-60
2023/04/12 13:25:05;;;;;;;3.65;1.05;;;;;;;11.92;76.28;95089.00;2063548;28;20249;-60
2023/04/12 13:26:07;;;;;;;3.30;1.20;;;;;;;12.10;76.24;95086.00;2064326;28;20205;-60
2023/04/12 13:27:08;;;;;;;1.80;0.82;;;;;;;12.21;75.49;95078.19;2064149;28;20221;-60
2023/04/12 13:28:11;;;;;;;6.50;0.90;;;;;;;12.22;74.98;95084.22;2062548;28;20799;-60
2023/04/12 13:29:12;;;;;;;4.60;0.95;;;;;;;12.22;74.59;95085.06;2063490;28;20206;-60
2023/04/12 13:30:14;;;;;;;3.13;0.90;;;;;;;12.28;74.28;95088.16;2063081;28;20229;-60
2023/04/12 13:31:15;;;;;;;1.58;0.70;;;;;;;12.34;73.55;95088.53;2065210;28;20206;-60
2023/04/12 13:32:17;;;;;;;1.15;0.70;;;;;;;12.66;73.82;95094.84;2064339;28;20198;-61
2023/04/12 13:33:19;;;;;;;1.90;0.90;;;;;;;12.57;73.79;95099.03;2062599;28;20666;-61
2023/04/12 13:34:23;;;;;;;2.83;1.13;;;;;;;12.47;74.14;95090.19;2061348;28;20203;-60
2023/04/12 13:35:24;;;;;;;3.15;0.82;;;;;;;12.34;74.66;95095.53;2063281;28;20198;-61
2023/04/12 13:36:26;;;;;;;4.85;1.00;;;;;;;12.26;73.91;95103.97;2066070;28;20245;-60
2023/04/12 13:37:28;;;;;;;2.78;1.00;;;;;;;12.13;75.03;95087.56;2064402;28;20554;-60
2023/04/12 13:38:29;;;;;;;1.73;1.00;;;;;;;12.17;74.63;95078.50;2064688;28;20194;-60
2023/04/12 13:39:31;;;;;;;4.60;1.35;;;;;;;12.03;74.82;95074.31;2061205;28;20308;-60
2023/04/12 13:40:34;;;;;;;2.58;0.90;;;;;;;11.98;75.74;95079.88;2064730;28;20205;-60
2023/04/12 13:41:35;;;;;;;2.65;0.80;;;;;;;11.98;75.58;95082.50;2064164;28;20195;-60
2023/04/12 13:42:37;;;;;;;1.73;0.85;;;;;;;11.94;75.04;95094.13;2063519;28;20293;-60
2023/04/12 13:43:39;;;;;;;2.30;1.05;;;;;;;11.92;74.95;95075.94;2064644;28;20199;-60
2023/04/12 13:44:42;;;;;;;5.65;1.23;;;;;;;11.95;75.18;95066.16;2062447;28;20230;-61
2023/04/12 13:45:43;;;;;;;4.07;1.20;;;;;;;11.90;74.89;95067.34;2064423;28;20218;-60
2023/04/12 13:46:45;;;;;;;1.58;1.00;;;;;;;11.85;75.16;95061.63;2063677;28;20958;-61
2023/04/12 13:47:46;;;;;;;2.05;0.90;;;;;;;11.82;75.85;95061.88;2064021;28;20202;-60
2023/04/12 13:48:48;;;;;;;2.85;1.02;;;;;;;11.70;74.91;95060.19;2063987;28;20202;-60
2023/04/12 13:49:50;;;;;;;1.40;0.73;;;;;;;11.67;75.60;95061.25;2061352;28;20232;-60
2023/04/12 13:50:51;;;;;;;5.07;1.00;;;;;;;11.73;75.68;95063.41;2065879;28;20215;-60
2023/04/12 13:51:55;;;;;;;3.17;1.10;;;;;;;11.73;76.05;95062.53;2063947;28;20230;-60
2023/04/12 13:52:57;;;;;;;2.65;0.80;;;;;;;11.71;76.06;95060.06;2065898;28;20526;-60
2023/04/12 13:53:59;;;;;;;2.75;0.90;;;;;;;11.63;76.29;95053.72;2063873;28;20240;-60
2023/04/12 13:55:00;;;;;;;1.23;0.90;;;;;;;11.69;77.04;95056.72;2062358;28;20245;-61
2023/04/12 13:56:02;;;;;;;2.45;1.00;;;;;;;11.69;76.66;95053.28;2064005;28;20268;-60
2023/04/12 14:05:22;;;;;;;4.53;1.10;;;;;;;11.82;76.76;95056.66;2082445;28;20591;-58
2023/04/12 14:08:08;;;;;;;1.48;0.80;;;;;;;11.79;76.33;95056.88;2098998;27;20561;-59
2023/04/12 14:09:27;;;;;;;3.00;1.00;;;;;;;11.92;77.24;95062.00;2092711;28;20280;-58
2023/04/12 14:10:28;;;;;;;2.42;0.90;;;;;;;11.93;76.31;95059.31;2086573;28;20207;-58
2023/04/12 14:17:49;;;;;;;2.75;1.30;;;;;;;11.96;76.77;95060.03;2091640;28;20576;-59
2023/04/12 14:18:51;;;;;;;3.47;1.13;;;;;;;12.04;76.37;95055.06;2086318;28;20201;-59
2023/04/12 14:19:52;;;;;;;2.47;0.70;;;;;;;12.14;75.62;95053.41;2079145;28;20309;-59
2023/04/12 14:20:56;;;;;;;2.08;1.08;;;;;;;12.28;75.07;95047.13;2082639;28;20710;-59
2023/04/12 14:21:57;;;;;;;2.55;0.95;;;;;;;12.45;74.38;95058.91;2083433;28;20197;-59
2023/04/12 14:22:59;;;;;;;5.13;0.90;;;;;;;12.44;74.01;95057.22;2082253;28;20279;-59
2023/04/12 14:24:00;;;;;;;2.63;0.80;;;;;;;12.33;73.92;95051.97;2080785;28;20198;-58
2023/04/12 14:25:02;;;;;;;2.42;1.00;;;;;;;12.54;73.47;95058.22;2077510;28;20222;-58
2023/04/12 14:26:04;;;;;;;9.02;2.33;;;;;;;12.76;73.23;95053.91;2080636;28;20202;-58
2023/04/12 14:27:07;;;;;;;23.65;9.85;;;;;;;13.19;72.79;95049.63;2079892;28;20193;-58
2023/04/12 14:28:08;;;;;;;14.52;7.78;;;;;;;13.33;71.00;95043.28;2069785;28;20201;-59
2023/04/12 14:29:11;;;;;;;9.30;1.45;;;;;;;13.21;71.67;95034.63;2076400;28;20221;-60
2023/04/12 14:30:12;;;;;;;3.13;1.38;;;;;;;13.09;71.47;95046.09;2069547;28;20198;-59
2023/04/12 14:31:16;;;;;;;4.43;1.20;;;;;;;12.94;71.65;95041.13;2078273;28;20204;-61
2023/04/12 14:32:18;;;;;;;2.83;0.98;;;;;;;12.95;72.20;95045.44;2077962;28;20745;-61
2023/04/12 14:33:19;;;;;;;2.22;0.98;;;;;;;12.84;72.22;95041.03;2070787;28;20202;-61
2023/04/12 14:34:21;;;;;;;2.30;1.10;;;;;;;12.81;72.40;95050.91;2072591;28;20641;-61
2023/04/12 14:35:22;;;;;;;2.67;0.85;;;;;;;12.69;71.78;95043.06;2078231;28;20324;-64
2023/04/12 14:36:26;;;;;;;2.90;0.93;;;;;;;12.55;71.50;95038.91;2080008;28;20193;-64
2023/04/12 14:37:28;;;;;;;4.97;1.20;;;;;;;12.57;72.24;95039.63;2083394;28;20220;-64
2023/04/12 14:38:29;;;;;;;3.38;1.10;;;;;;;12.58;72.14;95038.69;2080564;28;20255;-64
2023/04/12 14:39:31;;;;;;;1.77;0.82;;;;;;;12.55;72.35;95046.75;2081856;28;20691;-64
2023/04/12 14:40:32;;;;;;;1.50;0.90;;;;;;;12.46;72.41;95041.44;2080440;28;20201;-64
2023/04/12 14:41:34;;;;;;;2.55;0.93;;;;;;;12.34;72.82;95027.47;2083180;28;20796;-64
2023/04/12 14:42:36;;;;;;;2.10;1.00;;;;;;;12.44;73.34;95046.75;2082003;28;20205;-64
2023/04/12 14:43:38;;;;;;;1.40;0.80;;;;;;;12.32;72.56;95040.69;2080193;28;20205;-64
2023/04/12 14:44:39;;;;;;;7.22;1.33;;;;;;;12.36;72.92;95049.97;2074258;28;20225;-64
2023/04/12 14:45:41;;;;;;;2.05;0.90;;;;;;;12.30;73.51;95060.09;2071458;28;20202;-64
2023/04/12 15:37:35;;;;;;;1.00;0.70;;;;;;;8.03;89.88;95164.16;2100081;27;21256;-61
2023/04/12 15:38:40;;;;;;;1.20;0.60;;;;;;;8.10;89.54;95163.72;2099543;28;20295;-61
2023/04/12 15:39:42;;;;;;;1.25;0.70;;;;;;;8.14;88.63;95166.97;2093756;28;20285;-61
2023/04/12 15:40:44;;;;;;;1.30;0.70;;;;;;;8.23;89.26;95166.44;2093987;28;20200;-61
2023/04/12 15:41:45;;;;;;;3.47;0.80;;;;;;;8.20;88.06;95158.78;2094260;28;20334;-61
2023/04/12 15:42:47;;;;;;;2.55;0.70;;;;;;;8.25;87.86;95158.53;2093517;28;20203;-61
2023/04/12 15:43:48;;;;;;;1.00;0.50;;;;;;;8.31;87.50;95153.78;2093269;28;20207;-61
2023/04/12 15:44:50;;;;;;;1.25;0.63;;;;;;;8.43;87.30;95152.25;2092070;28;20686;-61
2023/04/12 15:45:53;;;;;;;1.92;0.80;;;;;;;8.52;88.71;95143.09;2095553;28;20246;-61
2023/04/12 15:46:55;;;;;;;16.17;1.00;;;;;;;8.62;86.80;95157.22;2093965;28;20196;-61
2023/04/12 15:48:11;;;;;;;1.33;0.85;;;;;;;8.99;86.17;95161.94;2091917;28;20206;-61
2023/04/12 15:49:12;;;;;;;2.10;0.70;;;;;;;9.39;84.16;95167.22;2092031;28;20597;-61
2023/04/12 15:50:13;;;;;;;3.58;0.80;;;;;;;9.36;83.50;95159.63;2093439;28;20278;-61
2023/04/12 15:51:15;;;;;;;0.90;0.60;;;;;;;9.53;82.14;95166.34;2094179;28;20226;-62
2023/04/12 15:52:16;;;;;;;1.30;0.70;;;;;;;10.04;81.91;95168.25;2094349;28;20744;-61
2023/04/12 15:53:20;;;;;;;1.20;0.60;;;;;;;10.29;78.83;95159.63;2093724;28;20755;-61
2023/04/12 15:54:22;;;;;;;0.90;0.60;;;;;;;10.67;80.20;95150.19;2089442;28;20200;-61